Estación de Sagrada Familia

Ultimos registro cada 15 minutos 43
Estación Fecha / Hora Temperatura Humedad Lluvia Velocidad Dirección Radiación Presion
43 Sagrada Familia 07-05-2026 10:30 12,6 77 0 0 117 466 1027,1
42 Sagrada Familia 07-05-2026 10:15 12,8 77 0 0 21 476 1027,4
41 Sagrada Familia 07-05-2026 10:00 11,7 82 0 0 21 406 1027,4
40 Sagrada Familia 07-05-2026 09:45 11 82 0 0,4 312 369 1027,3
39 Sagrada Familia 07-05-2026 09:30 10,7 85 0 0 89 323 1027,4
38 Sagrada Familia 07-05-2026 09:15 9,9 88 0 0 81 281 1027,2
37 Sagrada Familia 07-05-2026 09:00 9,2 90 0 0 173 51 1027
36 Sagrada Familia 07-05-2026 08:45 8,4 92 0 0 196 46 1026,7
35 Sagrada Familia 07-05-2026 08:30 7,7 93 0 0 89 40 1026,5
34 Sagrada Familia 07-05-2026 08:15 7,3 94 0 0 339 32 1026,4
33 Sagrada Familia 07-05-2026 08:00 6,7 91 0 0 8 25 1026,1
32 Sagrada Familia 07-05-2026 07:45 6,8 90 0 0 8 14 1026,1
31 Sagrada Familia 07-05-2026 07:30 7,3 90 0 0 8 5 1026
30 Sagrada Familia 07-05-2026 07:15 7,7 89 0 0 8 0 1025,8
29 Sagrada Familia 07-05-2026 07:00 8,1 90 0 0 8 0 1025,6
28 Sagrada Familia 07-05-2026 06:45 8,5 89 0 0 52 0 1025,4
27 Sagrada Familia 07-05-2026 06:30 8,9 88 0 0 11 0 1025,5
26 Sagrada Familia 07-05-2026 06:15 9,3 89 0 0 11 0 1025,5
25 Sagrada Familia 07-05-2026 06:00 9,8 88 0 0 183 0 1025,3
24 Sagrada Familia 07-05-2026 05:45 10,1 87 0 0 183 0 1025,4
23 Sagrada Familia 07-05-2026 05:30 10,2 87 0 0 235 0 1025
22 Sagrada Familia 07-05-2026 05:15 10,3 87 0 0 212 0 1024,8
21 Sagrada Familia 07-05-2026 05:00 10,4 86 0 0,4 288 0 1024,6
20 Sagrada Familia 07-05-2026 04:45 10,6 87 0 0 255 0 1024,3
19 Sagrada Familia 07-05-2026 04:30 10,7 87 0 0 247 0 1024
18 Sagrada Familia 07-05-2026 04:15 10,7 87 0 0 229 0 1024,2
17 Sagrada Familia 07-05-2026 04:00 10,8 87 0 0,4 200 0 1024
16 Sagrada Familia 07-05-2026 03:45 10,8 87 0 0 216 0 1024
15 Sagrada Familia 07-05-2026 03:30 10,9 87 0 0 312 0 1024
14 Sagrada Familia 07-05-2026 03:15 10,9 86 0 0 221 0 1024,2
13 Sagrada Familia 07-05-2026 03:00 11 86 0 0 9 0 1024
12 Sagrada Familia 07-05-2026 02:45 11,1 86 0 0 22 0 1023,9
11 Sagrada Familia 07-05-2026 02:30 11 87 0 0 244 0 1023,9
10 Sagrada Familia 07-05-2026 02:15 10,9 86 0 0 232 0 1023,8
9 Sagrada Familia 07-05-2026 02:00 10,9 87 0 0 237 0 1023,6
8 Sagrada Familia 07-05-2026 01:45 10,7 87 0 0 251 0 1023,6
7 Sagrada Familia 07-05-2026 01:30 10,7 88 0 0 260 0 1023,3
6 Sagrada Familia 07-05-2026 01:15 10,8 87 0 0 219 0 1023,2
5 Sagrada Familia 07-05-2026 01:00 10,8 88 0 0 237 0 1023
4 Sagrada Familia 07-05-2026 00:45 10,9 88 0 0 192 0 1023,2
3 Sagrada Familia 07-05-2026 00:30 11,3 87 0 0 273 0 1023,3
2 Sagrada Familia 07-05-2026 00:15 11,6 86 0 0 273 0 1023,1
1 Sagrada Familia 07-05-2026 00:00 11,8 86 0 0 273 0 1023